Time;durP1;ratioP1;P1;durP2;ratioP2;P2;SDS_P1;SDS_P2;PMS_P1;PMS_P2;Temp;Humidity;BMP_temperature;BMP_pressure;BME280_temperature;BME280_humidity;BME280_pressure;Samples;Min_cycle;Max_cycle;Signal;HPM_P1;HPM_P2
2021/03/20 00:01:38;;;;;;;14.57;13.00;;;-1.50;45.20;;;;;;5033595;28;20634;-71
2021/03/20 00:04:04;;;;;;;14.18;12.63;;;-1.60;44.80;;;;;;5032095;28;20187;-72
2021/03/20 00:06:34;;;;;;;13.40;11.90;;;-1.60;45.00;;;;;;5031948;28;20332;-71
2021/03/20 00:09:04;;;;;;;15.15;13.35;;;-1.60;45.20;;;;;;5031244;28;20826;-72
2021/03/20 00:11:29;;;;;;;14.02;12.50;;;-1.60;45.90;;;;;;5032296;28;20183;-72
2021/03/20 00:13:57;;;;;;;16.47;13.43;;;-1.70;44.60;;;;;;5031991;28;20754;-71
2021/03/20 00:16:22;;;;;;;22.13;14.07;;;-1.60;45.20;;;;;;5031691;28;20176;-71
2021/03/20 00:18:48;;;;;;;15.97;13.13;;;-1.70;44.90;;;;;;5029721;28;20706;-71
2021/03/20 00:21:13;;;;;;;14.90;13.30;;;-1.70;45.20;;;;;;5031915;28;20242;-71
2021/03/20 00:23:39;;;;;;;21.20;13.23;;;-1.70;44.80;;;;;;5032072;28;20223;-71
2021/03/20 00:26:05;;;;;;;17.17;12.50;;;-1.70;44.80;;;;;;5031825;28;20171;-71
2021/03/20 00:28:32;;;;;;;18.83;13.00;;;-1.80;44.70;;;;;;5031326;28;20175;-71
2021/03/20 00:31:04;;;;;;;17.40;13.65;;;-1.80;45.20;;;;;;5031653;28;20549;-71
2021/03/20 00:33:30;;;;;;;16.33;13.88;;;-1.80;44.80;;;;;;5032153;28;20202;-71
2021/03/20 00:35:56;;;;;;;17.43;14.43;;;-1.80;45.00;;;;;;5032087;28;20171;-71
2021/03/20 00:38:24;;;;;;;25.98;15.00;;;-1.90;44.90;;;;;;5031662;28;20458;-71
2021/03/20 00:40:50;;;;;;;14.43;12.68;;;-2.00;44.80;;;;;;5031073;28;20194;-71
2021/03/20 00:43:15;;;;;;;13.52;12.13;;;-2.00;45.30;;;;;;5031092;28;20698;-72
2021/03/20 00:45:41;;;;;;;15.40;12.77;;;-2.10;45.40;;;;;;5031013;28;20179;-71
2021/03/20 00:48:11;;;;;;;19.97;13.13;;;-2.10;45.40;;;;;;5029537;28;20187;-71
2021/03/20 00:50:36;;;;;;;13.02;11.48;;;-2.10;45.70;;;;;;5030486;28;20488;-72
2021/03/20 00:53:02;;;;;;;19.57;13.97;;;-2.10;45.80;;;;;;5030762;28;20195;-71
2021/03/20 00:55:28;;;;;;;14.73;12.25;;;-2.10;45.70;;;;;;5030999;28;20245;-71
2021/03/20 00:57:53;;;;;;;13.37;11.97;;;-2.10;46.20;;;;;;5031292;28;20270;-71
2021/03/20 01:00:22;;;;;;;15.17;12.63;;;-2.10;45.60;;;;;;5030072;28;20168;-71
2021/03/20 01:02:48;;;;;;;14.82;11.70;;;-2.20;45.50;;;;;;5030669;28;20269;-71
2021/03/20 01:05:16;;;;;;;17.37;14.10;;;-2.20;46.00;;;;;;5030881;28;20175;-71
2021/03/20 01:07:43;;;;;;;17.15;14.00;;;-2.20;45.90;;;;;;5031047;28;20175;-72
2021/03/20 01:10:14;;;;;;;17.63;13.07;;;-2.20;46.00;;;;;;5031128;28;20210;-72
2021/03/20 01:12:40;;;;;;;15.55;12.18;;;-2.20;45.70;;;;;;5030710;28;20273;-71
2021/03/20 01:15:07;;;;;;;15.30;11.97;;;-2.20;45.80;;;;;;5030924;28;20254;-71
2021/03/20 01:17:32;;;;;;;16.08;13.38;;;-2.20;45.80;;;;;;5031392;28;20199;-72
2021/03/20 01:19:58;;;;;;;13.50;12.10;;;-2.20;45.40;;;;;;5030857;28;20179;-72
2021/03/20 01:22:24;;;;;;;14.97;12.33;;;-2.20;45.30;;;;;;5030840;28;20422;-71
2021/03/20 01:24:49;;;;;;;13.00;11.20;;;-2.20;45.40;;;;;;5031113;28;20176;-71
2021/03/20 01:27:15;;;;;;;19.47;13.50;;;-2.20;45.50;;;;;;5029511;28;20260;-71
2021/03/20 01:29:40;;;;;;;14.37;12.40;;;-2.20;45.10;;;;;;5030439;28;20657;-72
2021/03/20 01:32:06;;;;;;;17.57;11.60;;;-2.20;45.10;;;;;;5029463;28;20206;-71
2021/03/20 01:34:32;;;;;;;13.23;10.40;;;-2.20;45.20;;;;;;5029062;28;20281;-71
2021/03/20 01:36:57;;;;;;;16.73;12.93;;;-2.30;44.90;;;;;;5030423;28;20507;-71
2021/03/20 01:39:23;;;;;;;11.90;10.60;;;-2.40;44.80;;;;;;5032524;28;20407;-71
2021/03/20 01:41:48;;;;;;;14.13;12.63;;;-2.40;45.20;;;;;;5034362;28;20198;-71
2021/03/20 01:44:21;;;;;;;17.50;12.10;;;-2.40;45.70;;;;;;5033435;28;20234;-72
2021/03/20 01:46:49;;;;;;;13.85;12.45;;;-2.40;45.60;;;;;;5034412;28;20214;-71
2021/03/20 01:49:43;;;;;;;15.50;12.40;;;-2.50;45.70;;;;;;5033768;28;20225;-72
2021/03/20 01:52:20;;;;;;;25.38;14.15;;;-2.50;45.90;;;;;;5033104;28;20230;-73
2021/03/20 01:55:15;;;;;;;14.43;12.13;;;-2.50;45.90;;;;;;5034288;28;20258;-72
2021/03/20 01:57:52;;;;;;;22.85;13.70;;;-2.50;46.30;;;;;;5033095;28;20580;-71
2021/03/20 02:00:20;;;;;;;11.77;10.52;;;-2.40;46.80;;;;;;5033705;28;20652;-71
2021/03/20 02:02:46;;;;;;;14.63;12.02;;;-2.40;46.50;;;;;;5033682;28;20219;-72
2021/03/20 02:05:22;;;;;;;12.57;11.30;;;-2.40;46.10;;;;;;5032715;28;20172;-71
2021/03/20 02:07:47;;;;;;;17.48;13.02;;;-2.30;45.50;;;;;;5034064;28;20710;-71
2021/03/20 02:10:14;;;;;;;13.20;10.73;;;;;;;;;;5033447;28;20214;-71
2021/03/20 02:12:42;;;;;;;17.95;13.20;;;-2.50;44.90;;;;;;5034037;28;20207;-71
2021/03/20 02:15:13;;;;;;;12.07;10.98;;;-2.50;45.90;;;;;;5033722;28;20186;-71
2021/03/20 02:18:04;;;;;;;16.15;12.85;;;-2.50;45.80;;;;;;5033759;28;20207;-72
2021/03/20 02:20:54;;;;;;;14.68;12.15;;;-2.50;45.90;;;;;;5033436;28;20171;-71
2021/03/20 02:23:28;;;;;;;21.38;12.77;;;-2.40;45.80;;;;;;5032813;28;20676;-71
2021/03/20 02:26:08;;;;;;;12.05;10.57;;;-2.40;45.20;;;;;;5034430;28;20186;-71
2021/03/20 02:29:11;;;;;;;15.43;11.82;;;-2.50;45.30;;;;;;5032015;28;20600;-72
2021/03/20 02:32:11;;;;;;;12.55;11.18;;;-2.50;44.80;;;;;;5033248;28;20203;-72
2021/03/20 02:35:05;;;;;;;16.35;11.60;;;-2.50;44.70;;;;;;5031815;28;20213;-72
2021/03/20 02:37:42;;;;;;;12.65;8.65;;;-2.60;44.70;;;;;;5033506;28;20744;-71
2021/03/20 02:40:26;;;;;;;17.08;12.05;;;;;;;;;;5032434;28;20195;-71
2021/03/20 02:43:02;;;;;;;14.50;10.80;;;-2.70;44.30;;;;;;5031817;28;20195;-72
2021/03/20 02:45:34;;;;;;;11.95;10.63;;;-2.70;44.60;;;;;;5033249;28;20183;-72
2021/03/20 02:48:24;;;;;;;13.45;10.60;;;-2.70;44.60;;;;;;5033022;28;20194;-72
2021/03/20 02:51:16;;;;;;;13.07;10.57;;;-2.80;44.60;;;;;;5031606;28;20198;-72
2021/03/20 02:53:56;;;;;;;14.63;9.85;;;-2.70;44.50;;;;;;5032961;28;20284;-72
2021/03/20 02:56:27;;;;;;;15.15;10.10;;;-2.70;44.00;;;;;;5032918;28;20194;-72
2021/03/20 02:58:55;;;;;;;15.55;11.70;;;-2.80;44.00;;;;;;5032812;28;20179;-72
2021/03/20 03:01:24;;;;;;;15.80;10.75;;;-2.80;44.60;;;;;;5032979;28;20228;-72
2021/03/20 03:03:52;;;;;;;15.85;10.32;;;-2.80;45.00;;;;;;5031714;28;20183;-72
2021/03/20 03:06:39;;;;;;;10.70;9.05;;;-2.80;44.90;;;;;;5033384;28;20214;-72
2021/03/20 03:09:09;;;;;;;11.18;10.07;;;-2.80;45.00;;;;;;5047371;28;20655;-72
2021/03/20 03:11:53;;;;;;;14.40;10.13;;;-2.70;45.10;;;;;;5032410;28;20193;-72
2021/03/20 03:14:47;;;;;;;11.52;9.38;;;-2.60;45.50;;;;;;5032508;28;20175;-71
2021/03/20 03:17:16;;;;;;;13.90;10.63;;;-2.50;63.10;;;;;;5022065;28;20242;-72
2021/03/20 03:20:06;;;;;;;11.68;9.65;;;-2.40;44.10;;;;;;5030340;28;20653;-72
2021/03/20 03:22:53;;;;;;;16.63;10.43;;;-2.40;44.10;;;;;;5032316;28;20225;-72
2021/03/20 03:25:23;;;;;;;17.20;10.77;;;-2.40;44.10;;;;;;5032255;28;20179;-72
2021/03/20 03:27:52;;;;;;;12.32;10.18;;;-2.30;44.50;;;;;;5032139;28;20587;-72
2021/03/20 03:30:21;;;;;;;11.60;10.15;;;-2.30;44.00;;;;;;5031572;28;20187;-72
2021/03/20 03:32:50;;;;;;;15.68;10.95;;;-2.20;44.10;;;;;;5032022;28;20206;-72
2021/03/20 03:35:45;;;;;;;12.80;11.13;;;-2.10;44.60;;;;;;5032001;28;20183;-72
2021/03/20 03:38:16;;;;;;;13.57;9.55;;;-2.10;44.80;;;;;;5014604;28;20219;-72
2021/03/20 03:41:10;;;;;;;12.32;8.32;;;-1.90;44.50;;;;;;5031484;28;20176;-72
2021/03/20 03:43:36;;;;;;;12.05;9.63;;;-1.80;44.00;;;;;;5032237;28;20241;-72
2021/03/20 03:46:02;;;;;;;11.35;9.07;;;-1.80;43.20;;;;;;5048232;28;20278;-71
2021/03/20 03:48:28;;;;;;;12.23;10.57;;;-1.70;42.60;;;;;;5031947;28;20228;-71
2021/03/20 03:51:05;;;;;;;12.50;8.77;;;-1.80;42.50;;;;;;5031296;28;20175;-71
2021/03/20 03:53:31;;;;;;;12.32;8.80;;;-1.80;42.50;;;;;;5031832;28;20199;-71
2021/03/20 03:56:05;;;;;;;8.80;7.90;;;-1.80;42.50;;;;;;5047417;28;20244;-71
2021/03/20 03:59:02;;;;;;;13.23;10.40;;;-1.70;42.60;;;;;;5031751;28;20195;-71
2021/03/20 04:01:43;;;;;;;13.30;9.50;;;-1.70;42.60;;;;;;5031413;28;20546;-71
2021/03/20 04:04:27;;;;;;;17.08;9.05;;;-1.70;42.60;;;;;;5031695;28;20226;-71
2021/03/20 04:06:56;;;;;;;12.32;9.52;;;;;;;;;;5031809;28;20584;-71
2021/03/20 04:09:46;;;;;;;14.95;9.90;;;-1.50;42.20;;;;;;5031271;28;20234;-72
2021/03/20 04:12:14;;;;;;;13.15;9.57;;;-1.50;42.80;;;;;;5032059;28;20558;-73
2021/03/20 04:14:52;;;;;;;13.63;9.88;;;-1.50;42.80;;;;;;5047984;28;20183;-71
2021/03/20 04:17:33;;;;;;;11.07;8.77;;;-1.50;42.80;;;;;;5031470;28;20609;-71
2021/03/20 04:20:11;;;;;;;11.50;9.15;;;-1.40;42.90;;;;;;5030876;28;20201;-71
2021/03/20 04:22:47;;;;;;;10.98;9.70;;;-1.30;42.90;;;;;;5046477;28;20195;-71
2021/03/20 04:25:31;;;;;;;14.80;10.35;;;-1.30;42.90;;;;;;5030031;28;20274;-71
2021/03/20 04:28:07;;;;;;;11.55;10.25;;;-1.30;42.90;;;;;;5029896;28;20190;-71
2021/03/20 04:30:38;;;;;;;18.45;10.88;;;-1.20;43.00;;;;;;5030857;28;20194;-72
2021/03/20 04:33:32;;;;;;;13.90;10.20;;;-1.10;43.80;;;;;;5030348;28;20296;-72
2021/03/20 04:36:02;;;;;;;12.75;10.05;;;-1.10;42.00;;;;;;5031736;28;20202;-72
2021/03/20 04:38:28;;;;;;;10.68;9.57;;;-1.00;41.80;;;;;;5031442;28;20338;-72
2021/03/20 04:41:03;;;;;;;10.37;9.37;;;-1.00;41.60;;;;;;5046057;28;20683;-72
2021/03/20 04:43:32;;;;;;;11.55;10.38;;;-0.90;41.40;;;;;;5031190;28;20438;-72
2021/03/20 04:45:59;;;;;;;10.60;9.55;;;-0.90;40.90;;;;;;5031139;28;20228;-72
2021/03/20 04:48:34;;;;;;;10.38;9.35;;;-0.80;41.00;;;;;;5031609;28;20526;-72
2021/03/20 04:51:27;;;;;;;13.57;9.60;;;-0.80;40.90;;;;;;5030789;28;20560;-72
2021/03/20 04:53:56;;;;;;;11.63;10.43;;;-0.70;40.70;;;;;;5031401;28;20199;-72
2021/03/20 04:56:23;;;;;;;9.95;9.02;;;-0.70;40.30;;;;;;5030657;28;20172;-72
2021/03/20 04:58:57;;;;;;;11.63;10.38;;;-0.70;40.20;;;;;;5030358;28;20548;-72
2021/03/20 05:01:34;;;;;;;12.98;11.63;;;-0.70;40.80;;;;;;5030567;28;20551;-72
2021/03/20 05:04:25;;;;;;;12.65;10.23;;;-0.70;40.40;;;;;;5038049;28;20235;-73
2021/03/20 05:06:52;;;;;;;11.25;10.15;;;-0.70;40.40;;;;;;5038587;28;20207;-73
2021/03/20 05:09:22;;;;;;;12.90;11.45;;;-0.70;40.30;;;;;;5037112;28;20233;-71
2021/03/20 05:11:58;;;;;;;16.65;11.27;;;-0.80;40.50;;;;;;5038625;28;20206;-74
2021/03/20 05:14:51;;;;;;;11.55;10.30;;;-0.70;40.60;;;;;;5040471;28;20181;-73
2021/03/20 05:17:19;;;;;;;13.13;11.10;;;-0.70;40.80;;;;;;5043270;28;20294;-74
2021/03/20 05:19:45;;;;;;;11.60;10.15;;;-0.70;40.90;;;;;;5042534;28;20175;-73
2021/03/20 05:22:19;;;;;;;13.97;10.13;;;-0.70;40.90;;;;;;5042813;28;20195;-71
2021/03/20 05:24:47;;;;;;;11.35;10.20;;;-0.60;40.90;;;;;;5042293;28;20191;-74
2021/03/20 05:27:19;;;;;;;11.73;10.63;;;-0.60;40.90;;;;;;5043718;28;20171;-73
2021/03/20 05:29:44;;;;;;;12.20;11.00;;;-0.60;40.90;;;;;;5042177;28;20178;-70
2021/03/20 05:32:13;;;;;;;13.30;10.90;;;-0.50;41.10;;;;;;5042028;28;20209;-74
2021/03/20 05:34:41;;;;;;;11.45;10.25;;;-0.50;41.00;;;;;;5041505;28;20230;-71
2021/03/20 05:37:09;;;;;;;12.38;10.13;;;-0.40;41.20;;;;;;5043480;28;20202;-69
2021/03/20 05:39:35;;;;;;;17.08;10.88;;;-0.40;40.90;;;;;;5042949;28;20186;-72
2021/03/20 05:42:26;;;;;;;14.02;11.43;;;-0.40;40.80;;;;;;5043307;28;20219;-72
2021/03/20 05:45:02;;;;;;;12.48;11.18;;;-0.40;40.70;;;;;;5043526;28;20178;-73
2021/03/20 05:47:44;;;;;;;13.07;11.43;;;-0.30;40.30;;;;;;5042790;28;20184;-73
2021/03/20 05:50:30;;;;;;;19.80;12.57;;;-0.40;39.80;;;;;;5042383;28;20187;-73
2021/03/20 05:53:05;;;;;;;12.50;11.02;;;-0.40;40.10;;;;;;5041823;28;20210;-73
2021/03/20 05:55:55;;;;;;;14.35;12.55;;;-0.40;40.40;;;;;;5041940;28;20179;-72
2021/03/20 05:58:36;;;;;;;18.33;11.45;;;-0.50;40.80;;;;;;5042714;28;20203;-72
2021/03/20 06:01:10;;;;;;;11.68;9.98;;;-0.50;40.90;;;;;;5040834;28;20195;-74
2021/03/20 06:03:44;;;;;;;13.05;11.20;;;-0.50;41.50;;;;;;5041195;28;20199;-73
2021/03/20 06:06:36;;;;;;;16.17;12.05;;;-0.40;41.70;;;;;;5041950;28;20175;-73
2021/03/20 06:09:24;;;;;;;20.40;11.57;;;-0.40;41.20;;;;;;5041563;28;20656;-73
2021/03/20 06:12:11;;;;;;;14.65;11.73;;;-0.30;41.20;;;;;;5041903;28;20240;-72
2021/03/20 06:15:08;;;;;;;11.63;10.43;;;-0.30;41.20;;;;;;5041630;28;20183;-73
2021/03/20 06:17:53;;;;;;;12.70;11.50;;;-0.20;41.30;;;;;;5042809;28;20209;-72
2021/03/20 06:20:44;;;;;;;13.23;11.65;;;-0.10;40.90;;;;;;5043952;28;20181;-74
2021/03/20 06:23:20;;;;;;;14.68;11.60;;;0.10;40.00;;;;;;5042772;28;20217;-73
2021/03/20 06:25:49;;;;;;;15.55;10.98;;;0.20;39.40;;;;;;5044264;28;20185;-72
2021/03/20 06:28:20;;;;;;;13.00;10.05;;;0.40;39.30;;;;;;5044967;28;20606;-74
2021/03/20 06:30:54;;;;;;;12.13;10.13;;;0.50;38.00;;;;;;5044777;28;20195;-72
2021/03/20 06:33:28;;;;;;;10.80;9.80;;;0.70;37.00;;;;;;5045186;28;20207;-74
2021/03/20 06:36:09;;;;;;;11.27;10.07;;;1.10;50.70;;;;;;5044774;28;20218;-74
2021/03/20 06:38:38;;;;;;;10.15;9.25;;;1.20;51.30;;;;;;5041886;28;20213;-71
2021/03/20 06:41:23;;;;;;;10.77;9.77;;;1.30;49.80;;;;;;5055225;28;20181;-72
2021/03/20 06:44:00;;;;;;;15.02;8.32;;;1.30;50.00;;;;;;5058310;28;20178;-71
2021/03/20 06:46:30;;;;;;;11.35;10.10;;;1.40;48.40;;;;;;5045256;28;20722;-72
2021/03/20 06:48:57;;;;;;;12.30;9.35;;;1.50;48.30;;;;;;5042178;28;20766;-72
2021/03/20 06:51:23;;;;;;;12.55;10.38;;;1.60;48.30;;;;;;5042370;28;20172;-72
2021/03/20 06:53:57;;;;;;;11.05;9.43;;;1.60;47.70;;;;;;5041870;28;20234;-74
2021/03/20 06:56:24;;;;;;;9.38;7.68;;;1.70;47.40;;;;;;5057836;28;20189;-71
2021/03/20 06:58:49;;;;;;;11.57;8.93;;;1.60;47.20;;;;;;5042497;28;20240;-74
2021/03/20 07:01:34;;;;;;;11.33;10.10;;;1.60;47.80;;;;;;5042255;28;20170;-73
2021/03/20 07:04:25;;;;;;;10.15;7.88;;;1.50;49.30;;;;;;5041184;28;20200;-72
2021/03/20 07:07:22;;;;;;;9.60;8.00;;;1.50;49.20;;;;;;5041780;28;20181;-71
2021/03/20 07:09:51;;;;;;;9.60;8.60;;;1.60;49.90;;;;;;5040521;28;20269;-72
2021/03/20 07:12:21;;;;;;;10.35;8.15;;;1.90;49.70;;;;;;5041375;28;20229;-73
2021/03/20 07:14:47;;;;;;;13.98;8.27;;;;;;;;;;5042074;28;20174;-71
2021/03/20 07:17:25;;;;;;;10.20;6.63;;;2.90;40.40;;;;;;5042924;28;20213;-71
2021/03/20 07:19:53;;;;;;;11.40;5.95;;;3.10;37.50;;;;;;5058416;28;20176;-73
2021/03/20 07:22:28;;;;;;;8.40;7.15;;;;;;;;;;5043339;28;20199;-72
2021/03/20 07:24:54;;;;;;;6.60;6.00;;;;;;;;;;5059433;28;20205;-73
2021/03/20 07:27:23;;;;;;;6.60;5.90;;;;;;;;;;5045161;28;20182;-69
2021/03/20 07:29:52;;;;;;;7.65;6.95;;;;;;;;;;5060277;28;20187;-71
2021/03/20 07:32:24;;;;;;;6.32;5.70;;;2.00;25.10;;;;;;5055367;28;20224;-68
2021/03/20 07:34:50;;;;;;;5.07;4.50;;;1.90;26.20;;;;;;5061503;28;20289;-73
2021/03/20 07:37:19;;;;;;;4.78;4.32;;;1.80;24.90;;;;;;5041497;28;20210;-74
2021/03/20 07:39:46;;;;;;;4.95;4.40;;;1.80;23.50;;;;;;5041685;28;20180;-73
2021/03/20 07:42:36;;;;;;;3.95;3.65;;;2.00;23.40;;;;;;5041920;28;20552;-74
2021/03/20 07:45:31;;;;;;;8.25;5.03;;;2.20;21.30;;;;;;5042658;28;20178;-73
2021/03/20 07:47:56;;;;;;;3.65;3.38;;;2.30;19.30;;;;;;5026037;28;20649;-72
2021/03/20 07:50:38;;;;;;;4.93;4.53;;;2.30;18.40;;;;;;5059356;28;20258;-72
2021/03/20 07:53:13;;;;;;;4.65;4.20;;;2.20;19.00;;;;;;5045995;28;20209;-73
2021/03/20 07:56:03;;;;;;;4.03;3.72;;;2.30;18.50;;;;;;5057738;28;20666;-73
2021/03/20 07:58:32;;;;;;;5.85;4.93;;;2.20;18.30;;;;;;5056593;28;20211;-72
2021/03/20 08:01:00;;;;;;;4.03;3.72;;;2.10;18.90;;;;;;5040376;28;20175;-72
2021/03/20 08:03:30;;;;;;;5.60;5.10;;;2.00;20.20;;;;;;5041835;28;20219;-71
2021/03/20 08:06:18;;;;;;;6.60;5.03;;;2.20;19.40;;;;;;5041002;28;20189;-73
2021/03/20 08:08:44;;;;;;;5.68;5.10;;;2.60;19.70;;;;;;5039319;28;20634;-71
2021/03/20 08:11:31;;;;;;;11.10;4.90;;;2.80;18.70;;;;;;5041561;28;20179;-71
2021/03/20 08:14:04;;;;;;;7.70;6.90;;;2.80;18.70;;;;;;5041656;28;20278;-73
2021/03/20 08:16:29;;;;;;;5.10;4.65;;;2.80;18.70;;;;;;5042133;28;20189;-73
2021/03/20 08:18:56;;;;;;;4.57;4.17;;;2.60;18.10;;;;;;5043678;28;20273;-71
2021/03/20 08:21:25;;;;;;;5.05;4.63;;;;;;;;;;5060091;28;20257;-72
2021/03/20 08:24:01;;;;;;;5.32;4.82;;;;;;;;;;5044465;28;20171;-73
2021/03/20 08:26:33;;;;;;;6.32;4.95;;;;;;;;;;5044478;28;20180;-73
2021/03/20 08:29:18;;;;;;;5.45;4.68;;;0.30;16.70;;;;;;5059578;28;20187;-70
2021/03/20 08:31:47;;;;;;;4.15;3.75;;;1.80;18.10;;;;;;5059970;28;20200;-72
2021/03/20 08:34:21;;;;;;;5.50;4.25;;;1.70;18.70;;;;;;5041503;28;20173;-70
2021/03/20 08:36:55;;;;;;;5.70;4.45;;;1.40;18.30;;;;;;5057275;28;20247;-71
2021/03/20 08:39:44;;;;;;;5.80;5.30;;;1.50;18.30;;;;;;5056310;28;20196;-73
2021/03/20 08:42:36;;;;;;;4.20;3.90;;;1.30;18.30;;;;;;5028877;28;20291;-71
2021/03/20 08:45:21;;;;;;;5.20;4.65;;;;;;;;;;5042387;28;20203;-72
2021/03/20 08:48:05;;;;;;;4.63;4.22;;;1.50;16.20;;;;;;5057247;28;20183;-70
2021/03/20 08:50:45;;;;;;;5.00;4.50;;;1.80;18.10;;;;;;5041298;28;20182;-69
2021/03/20 08:53:31;;;;;;;5.60;3.95;;;1.80;15.00;;;;;;5041576;28;20292;-73
2021/03/20 08:56:35;;;;;;;3.90;3.60;;;1.70;16.30;;;;;;5041212;28;20754;-72
2021/03/20 08:59:09;;;;;;;6.85;4.70;;;1.80;13.80;;;;;;5039731;28;20582;-70
2021/03/20 09:01:51;;;;;;;4.85;4.45;;;1.80;13.90;;;;;;5040995;28;20178;-72
2021/03/20 09:04:21;;;;;;;7.25;4.55;;;2.10;15.30;;;;;;5040367;28;20266;-74
2021/03/20 09:06:53;;;;;;;4.00;3.70;;;2.30;12.20;;;;;;5040464;28;20175;-71
2021/03/20 09:09:24;;;;;;;5.50;4.47;;;2.50;14.50;;;;;;5040399;28;20205;-71
2021/03/20 09:12:34;;;;;;;4.70;4.30;;;2.60;14.40;;;;;;5046132;28;20593;-73
2021/03/20 09:15:03;;;;;;;5.15;4.65;;;2.60;14.10;;;;;;5004346;28;20190;-73
2021/03/20 09:17:47;;;;;;;4.43;4.03;;;;;;;;;;5041494;28;20203;-73
2021/03/20 09:20:29;;;;;;;4.53;4.15;;;2.70;11.90;;;;;;5038779;28;20203;-73
2021/03/20 09:22:57;;;;;;;4.75;4.43;;;2.90;11.80;;;;;;5057422;28;20195;-72
2021/03/20 09:25:31;;;;;;;4.75;4.45;;;3.00;11.40;;;;;;5040906;28;20195;-73
2021/03/20 09:28:05;;;;;;;5.63;5.15;;;3.00;12.80;;;;;;5041076;28;20181;-73
2021/03/20 09:30:36;;;;;;;5.40;4.88;;;3.00;11.10;;;;;;5039869;28;20199;-73
2021/03/20 09:33:25;;;;;;;4.60;4.30;;;2.90;10.30;;;;;;5056139;28;20210;-73
2021/03/20 09:36:00;;;;;;;6.00;4.60;;;2.90;10.30;;;;;;5028944;28;20278;-73
2021/03/20 09:38:35;;;;;;;5.15;4.85;;;3.00;10.30;;;;;;5042025;28;20255;-70
2021/03/20 09:41:03;;;;;;;4.68;4.28;;;3.20;10.30;;;;;;5041497;28;20182;-72
2021/03/20 09:43:46;;;;;;;4.72;4.25;;;3.20;10.50;;;;;;5041161;28;20195;-72
2021/03/20 09:46:34;;;;;;;7.97;5.80;;;3.00;10.30;;;;;;5040025;28;20179;-72
2021/03/20 09:49:03;;;;;;;4.65;4.25;;;3.20;13.00;;;;;;5041672;28;20171;-71
2021/03/20 09:51:58;;;;;;;4.75;4.45;;;3.40;7.30;;;;;;5040554;28;20183;-73
2021/03/20 09:59:44;;;;;;;4.95;4.65;;;2.80;10.20;;;;;;5043225;28;20207;-73
2021/03/20 10:02:10;;;;;;;6.40;4.85;;;2.80;8.10;;;;;;5046318;28;20205;-72
2021/03/20 10:04:53;;;;;;;4.67;4.37;;;2.80;10.20;;;;;;5050807;28;20249;-71
2021/03/20 10:07:22;;;;;;;4.00;3.80;;;2.90;8.40;;;;;;5039929;28;20194;-73
2021/03/20 10:10:11;;;;;;;5.10;4.80;;;3.10;7.40;;;;;;5053207;28;20175;-73
2021/03/20 10:12:42;;;;;;;5.28;4.93;;;3.20;6.70;;;;;;5051228;28;20230;-72
2021/03/20 10:15:14;;;;;;;5.53;5.15;;;3.10;8.20;;;;;;5034694;28;20167;-70
2021/03/20 10:17:59;;;;;;;4.47;4.25;;;;;;;;;;5033483;28;20219;-72
2021/03/20 10:20:45;;;;;;;5.63;5.18;;;;;;;;;;5048178;28;20192;-70
2021/03/20 10:23:26;;;;;;;5.30;5.00;;;;;;;;;;5033608;28;20193;-69
2021/03/20 10:25:55;;;;;;;4.90;4.60;;;2.90;7.60;;;;;;5049165;28;20175;-71
2021/03/20 10:28:30;;;;;;;5.35;5.05;;;3.10;8.30;;;;;;5034285;28;20206;-70
2021/03/20 10:31:02;;;;;;;5.70;5.32;;;3.10;8.90;;;;;;5032872;28;20175;-71
2021/03/20 10:33:36;;;;;;;4.65;4.35;;;3.10;8.00;;;;;;5048534;28;20735;-69
2021/03/20 10:36:20;;;;;;;5.68;5.20;;;3.10;7.00;;;;;;5048785;28;20191;-70
2021/03/20 10:38:48;;;;;;;5.80;5.40;;;3.10;7.40;;;;;;5048205;28;20202;-71
2021/03/20 10:41:30;;;;;;;4.97;4.68;;;3.40;8.40;;;;;;5033592;28;20202;-70
2021/03/20 10:43:55;;;;;;;4.97;4.72;;;3.60;8.50;;;;;;5048700;28;20175;-70
2021/03/20 10:46:29;;;;;;;5.17;4.87;;;3.70;7.40;;;;;;5033173;28;20237;-71
2021/03/20 10:48:57;;;;;;;5.90;5.60;;;3.80;8.80;;;;;;5047740;28;20621;-71
2021/03/20 10:51:27;;;;;;;6.30;5.90;;;3.80;7.50;;;;;;5048618;28;20370;-72
2021/03/20 10:54:00;;;;;;;5.72;5.43;;;3.90;6.50;;;;;;5048254;28;20221;-72
2021/03/20 10:56:36;;;;;;;5.18;4.90;;;4.00;6.60;;;;;;5033202;28;20183;-70
2021/03/20 10:59:30;;;;;;;6.28;5.97;;;4.20;6.70;;;;;;5032508;28;20183;-70
2021/03/20 11:01:56;;;;;;;6.07;5.60;;;4.50;7.30;;;;;;5032636;28;20645;-72
2021/03/20 11:04:33;;;;;;;6.73;6.30;;;4.60;7.90;;;;;;5032976;28;20179;-71
2021/03/20 11:07:01;;;;;;;6.30;5.90;;;4.40;6.90;;;;;;5033683;28;20459;-71
2021/03/20 11:09:30;;;;;;;6.25;5.75;;;4.40;7.90;;;;;;5032126;28;20194;-71
2021/03/20 11:12:02;;;;;;;6.60;6.20;;;4.20;6.80;;;;;;5048694;28;20636;-71
2021/03/20 11:14:28;;;;;;;5.22;5.03;;;4.10;6.70;;;;;;5032696;28;20229;-71
2021/03/20 11:17:04;;;;;;;5.88;5.47;;;4.00;7.10;;;;;;5032827;28;20250;-72
2021/03/20 11:19:38;;;;;;;5.82;5.43;;;3.80;7.10;;;;;;5033161;28;20218;-71
2021/03/20 11:22:18;;;;;;;6.93;6.43;;;;;;;;;;5032798;28;20247;-71
2021/03/20 11:24:46;;;;;;;6.00;5.55;;;;;;;;;;5048141;28;20171;-71
2021/03/20 11:27:24;;;;;;;5.97;5.68;;;;;;;;;;5032651;28;20175;-71
2021/03/20 11:29:52;;;;;;;6.10;5.75;;;;;;;;;;5047542;28;20183;-72
2021/03/20 11:32:23;;;;;;;5.68;5.30;;;4.00;7.30;;;;;;5048222;28;20480;-70
2021/03/20 11:35:01;;;;;;;6.95;6.30;;;3.90;6.50;;;;;;5033183;28;20180;-70
2021/03/20 11:37:28;;;;;;;6.20;5.70;;;3.70;4.50;;;;;;5048727;28;20238;-70
2021/03/20 11:39:58;;;;;;;6.65;6.25;;;3.40;4.30;;;;;;5032451;28;20179;-71
2021/03/20 11:42:37;;;;;;;6.18;5.80;;;3.30;5.00;;;;;;5032749;28;20245;-70
2021/03/20 11:45:31;;;;;;;6.07;5.78;;;3.40;4.40;;;;;;5048561;28;20171;-70
2021/03/20 11:48:00;;;;;;;5.70;5.40;;;3.40;3.80;;;;;;5037571;28;20206;-71
2021/03/20 11:50:33;;;;;;;6.57;5.95;;;3.50;4.80;;;;;;5032460;28;20175;-70
2021/03/20 11:53:15;;;;;;;6.40;6.00;;;3.50;3.20;;;;;;5031872;28;20673;-73
2021/03/20 11:55:42;;;;;;;6.43;6.03;;;3.50;3.90;;;;;;5032079;28;20175;-72
2021/03/20 11:58:23;;;;;;;13.13;6.07;;;3.60;6.30;;;;;;5032061;28;20201;-75
2021/03/20 12:00:49;;;;;;;7.13;6.53;;;3.60;4.00;;;;;;5031461;28;20197;-72
2021/03/20 12:03:20;;;;;;;5.87;5.57;;;3.60;3.60;;;;;;5032378;28;20297;-72
2021/03/20 12:05:47;;;;;;;6.18;5.88;;;3.70;3.70;;;;;;5043385;28;20231;-73
2021/03/20 12:08:24;;;;;;;5.78;5.47;;;3.80;4.40;;;;;;5042990;28;20183;-73
2021/03/20 12:11:01;;;;;;;6.30;5.90;;;3.90;3.70;;;;;;5031645;28;20578;-69
2021/03/20 12:13:52;;;;;;;5.88;5.50;;;3.90;4.10;;;;;;5047933;28;20264;-72
2021/03/20 12:16:28;;;;;;;6.25;5.88;;;4.00;4.40;;;;;;5031943;28;20183;-71
2021/03/20 12:19:09;;;;;;;6.60;6.20;;;4.00;4.00;;;;;;5031164;28;20207;-71
2021/03/20 12:21:53;;;;;;;5.85;5.55;;;4.10;4.30;;;;;;5032719;28;20175;-71
2021/03/20 12:24:27;;;;;;;6.45;6.15;;;4.10;5.00;;;;;;5047595;28;20236;-71
2021/03/20 12:26:54;;;;;;;7.15;6.65;;;4.10;4.60;;;;;;5057561;28;20232;-72
2021/03/20 12:29:29;;;;;;;7.10;6.70;;;4.10;5.00;;;;;;5036328;28;20233;-72
2021/03/20 12:31:54;;;;;;;6.30;6.00;;;4.10;4.70;;;;;;5036462;28;20195;-72
2021/03/20 12:34:20;;;;;;;7.07;6.67;;;4.30;4.60;;;;;;5039724;28;20201;-72
2021/03/20 12:36:49;;;;;;;6.40;6.10;;;4.30;5.90;;;;;;5055481;28;20179;-72
2021/03/20 12:39:17;;;;;;;7.07;6.70;;;4.40;4.60;;;;;;5041599;28;20178;-72
2021/03/20 12:41:46;;;;;;;7.32;6.60;;;4.10;3.50;;;;;;5057093;28;20584;-72
2021/03/20 12:44:27;;;;;;;6.60;6.30;;;4.00;3.30;;;;;;5045449;28;20171;-72
2021/03/20 12:46:55;;;;;;;7.57;7.13;;;4.00;4.10;;;;;;5046335;28;20206;-72
2021/03/20 12:49:31;;;;;;;7.00;6.60;;;3.90;5.20;;;;;;5061479;28;20175;-72
2021/03/20 12:52:08;;;;;;;6.85;6.45;;;4.10;5.30;;;;;;5061303;28;20565;-72
2021/03/20 12:54:40;;;;;;;6.90;6.50;;;4.30;4.70;;;;;;5048017;28;20171;-72
2021/03/20 12:57:06;;;;;;;6.68;6.38;;;4.40;4.50;;;;;;5045318;28;20211;-72
2021/03/20 12:59:32;;;;;;;7.10;6.80;;;4.50;4.40;;;;;;5044850;28;20182;-71
2021/03/20 13:01:59;;;;;;;8.00;7.13;;;4.50;4.40;;;;;;5045104;28;20435;-72
2021/03/20 13:04:24;;;;;;;7.15;6.65;;;4.40;3.30;;;;;;5045198;28;20186;-72
2021/03/20 13:06:50;;;;;;;7.70;7.30;;;4.20;3.70;;;;;;5036231;28;20179;-72
2021/03/20 13:09:18;;;;;;;7.40;7.00;;;4.30;3.50;;;;;;5030458;28;20610;-72
2021/03/20 13:11:43;;;;;;;7.80;7.32;;;4.40;3.70;;;;;;5031649;28;20533;-71
2021/03/20 13:14:09;;;;;;;7.33;7.03;;;4.30;3.90;;;;;;5046957;28;20281;-72
2021/03/20 13:16:35;;;;;;;7.23;6.83;;;4.40;5.00;;;;;;5031294;28;20714;-72
2021/03/20 13:19:01;;;;;;;7.60;7.25;;;4.60;6.00;;;;;;5031400;28;20179;-71
2021/03/20 13:21:32;;;;;;;7.85;7.35;;;4.70;3.90;;;;;;5031139;28;20232;-71
2021/03/20 13:23:58;;;;;;;7.60;7.20;;;4.60;4.30;;;;;;5031116;28;20171;-72
2021/03/20 13:26:23;;;;;;;8.40;7.90;;;4.70;2.60;;;;;;5030660;28;20183;-72
2021/03/20 13:28:49;;;;;;;7.57;7.07;;;4.60;2.10;;;;;;5028729;28;20445;-72
2021/03/20 13:31:15;;;;;;;7.63;7.23;;;4.50;2.70;;;;;;5032117;28;20171;-72
2021/03/20 13:33:42;;;;;;;7.55;7.15;;;4.20;3.90;;;;;;5030582;28;20214;-73